createdAt,value
2016-04-02T00:00:28.188Z,2.35
2016-04-02T00:01:42.521Z,2.35
2016-04-02T00:02:28.007Z,2.27
2016-04-02T00:03:27.979Z,2.31
2016-04-02T00:04:28.169Z,2.28
2016-04-02T00:05:27.968Z,2.31
2016-04-02T00:06:27.971Z,2.25
2016-04-02T00:07:27.974Z,2.3
2016-04-02T00:08:27.976Z,2.34
2016-04-02T00:09:27.963Z,2.28
2016-04-02T00:10:27.950Z,2.28
2016-04-02T00:11:27.938Z,2.28
2016-04-02T00:12:27.940Z,2.27
2016-04-02T00:13:27.974Z,2.23
2016-04-02T00:14:27.962Z,2.23
2016-04-02T00:15:27.933Z,2.12
2016-04-02T00:16:30.920Z,2.17
2016-04-02T00:17:27.985Z,2.18
2016-04-02T00:18:27.472Z,2.2
2016-04-02T00:19:28.115Z,2.18
2016-04-02T00:20:27.977Z,2.1
2016-04-02T00:21:27.903Z,2.12
2016-04-02T00:22:27.920Z,2.07
2016-04-02T00:24:27.879Z,2.17
2016-04-02T00:25:27.616Z,2.14
2016-04-02T00:26:27.900Z,2.17
2016-04-02T00:27:27.934Z,2.07
2016-04-02T00:28:27.906Z,2.18
2016-04-02T00:29:27.877Z,2.1
2016-04-02T00:30:28.082Z,2.14
2016-04-02T00:31:27.866Z,2.12
2016-04-02T00:32:28.104Z,2.1
2016-04-02T00:33:27.887Z,2
2016-04-02T00:34:28.062Z,2.03
2016-04-02T00:35:41.976Z,2.06
2016-04-02T00:36:27.854Z,2.07
2016-04-02T00:37:27.840Z,1.99
2016-04-02T00:38:42.124Z,1.99
2016-04-02T00:39:27.846Z,1.98
2016-04-02T00:40:27.864Z,2.03
2016-04-02T00:41:27.837Z,1.95
2016-04-02T00:42:28.042Z,1.93
2016-04-02T00:43:27.825Z,1.91
2016-04-02T00:44:28.016Z,1.95
2016-04-02T00:45:27.815Z,1.98
2016-04-02T00:46:27.834Z,2
2016-04-02T00:47:42.117Z,1.98
2016-04-02T00:48:27.792Z,1.93
2016-04-02T00:49:27.811Z,1.98
2016-04-02T00:50:27.781Z,1.93
2016-04-02T00:51:27.800Z,1.88
2016-04-02T00:52:27.772Z,1.83
2016-04-02T00:53:27.774Z,1.86
2016-04-02T00:54:27.761Z,1.86
2016-04-02T00:55:27.764Z,1.77
2016-04-02T00:56:27.969Z,1.83
2016-04-02T00:57:27.754Z,1.77
2016-04-02T00:59:27.744Z,1.77
2016-04-02T01:00:27.746Z,1.76
2016-04-02T01:01:27.280Z,1.79
2016-04-02T01:02:27.736Z,1.7
2016-04-02T01:03:27.738Z,1.73
2016-04-02T01:04:27.726Z,1.8
2016-04-02T01:05:27.994Z,1.73
2016-04-02T01:06:27.638Z,1.81
2016-04-02T01:07:27.749Z,1.73
2016-04-02T01:08:27.923Z,1.7
2016-04-02T01:09:28.349Z,1.79
2016-04-02T01:10:27.696Z,1.77
2016-04-02T01:11:28.323Z,1.68
2016-04-02T01:13:27.687Z,1.62
2016-04-02T01:14:27.690Z,1.59
2016-04-02T01:15:27.520Z,1.6
2016-04-02T01:16:27.681Z,1.69
2016-04-02T01:17:27.683Z,1.6
2016-04-02T01:18:41.810Z,1.51
2016-04-02T01:19:27.672Z,1.52
2016-04-02T01:21:27.912Z,1.5
2016-04-02T01:22:27.634Z,1.45
2016-04-02T01:23:27.653Z,1.44
2016-04-02T01:24:27.623Z,1.4
2016-04-02T01:25:27.625Z,1.34
2016-04-02T01:26:27.644Z,1.33
2016-04-02T01:27:27.835Z,1.42
2016-04-02T01:28:27.634Z,1.34
2016-04-02T01:29:27.622Z,1.32
2016-04-02T01:30:27.843Z,1.36
2016-04-02T01:31:41.721Z,1.33
2016-04-02T01:32:27.849Z,1.34
2016-04-02T01:33:27.632Z,1.34
2016-04-02T01:34:27.807Z,1.3
2016-04-02T01:35:27.575Z,1.26
2016-04-02T01:36:27.593Z,1.22
2016-04-02T01:37:41.690Z,1.18
2016-04-02T01:38:26.833Z,1.24
2016-04-02T01:39:27.788Z,1.16
2016-04-02T01:40:27.588Z,1.18
2016-04-02T01:41:41.888Z,1.09
2016-04-02T01:42:27.578Z,1.26
2016-04-02T01:43:27.534Z,1.26
2016-04-02T01:44:28.381Z,1.23
2016-04-02T01:45:27.976Z,1.22
2016-04-02T01:46:27.526Z,1.18
2016-04-02T01:47:27.529Z,1.15
2016-04-02T01:48:27.516Z,1.16
2016-04-02T01:49:27.550Z,1.18
2016-04-02T01:50:27.505Z,1.23
2016-04-02T01:51:27.195Z,1.24
2016-04-02T01:52:27.511Z,1.14
2016-04-02T01:53:27.561Z,1.2
2016-04-02T01:54:27.016Z,1.2
2016-04-02T01:55:27.535Z,1.11
2016-04-02T01:56:27.687Z,1.14
2016-04-02T01:57:27.647Z,1.14
2016-04-02T01:58:27.653Z,1.12
2016-04-02T01:59:27.425Z,1.14
2016-04-02T02:00:27.635Z,1.12
2016-04-02T02:01:27.397Z,1.08
2016-04-02T02:02:27.832Z,1.09
2016-04-02T02:03:27.409Z,1.16
2016-04-02T02:04:27.376Z,1.04
2016-04-02T02:05:27.375Z,1.12
2016-04-02T02:06:27.594Z,1
2016-04-02T02:07:27.361Z,1.05
2016-04-02T02:08:27.371Z,1.04
2016-04-02T02:09:27.325Z,1.05
2016-04-02T02:10:27.358Z,1.06
2016-04-02T02:11:27.313Z,1.05
2016-04-02T02:12:27.316Z,0.97
2016-04-02T02:13:27.318Z,1.05
2016-04-02T02:14:27.296Z,1.04
2016-04-02T02:16:27.302Z,0.91
2016-04-02T02:17:27.289Z,1.02
2016-04-02T02:18:27.275Z,0.96
2016-04-02T02:19:27.293Z,0.93
2016-04-02T02:20:27.279Z,0.93
2016-04-02T02:21:27.267Z,0.9
2016-04-02T02:22:27.284Z,0.97
2016-04-02T02:23:27.490Z,0.96
2016-04-02T02:24:27.478Z,0.91
2016-04-02T02:25:41.339Z,0.91
2016-04-02T02:26:41.576Z,0.91
2016-04-02T02:27:27.659Z,0.93
2016-04-02T02:28:27.223Z,0.96
2016-04-02T02:29:27.226Z,0.91
2016-04-02T02:30:27.212Z,0.94
2016-04-02T02:31:27.215Z,0.96
2016-04-02T02:33:27.190Z,0.97
2016-04-02T02:34:27.209Z,0.97
2016-04-02T02:35:27.195Z,0.87
2016-04-02T02:36:27.183Z,0.96
2016-04-02T02:37:27.764Z,0.9
2016-04-02T02:38:27.188Z,0.9
2016-04-02T02:39:27.159Z,0.93
2016-04-02T02:40:27.364Z,0.93
2016-04-02T02:41:27.150Z,0.97
2016-04-02T02:42:27.402Z,0.96
2016-04-02T02:43:27.358Z,0.88
2016-04-02T02:44:27.158Z,0.96
2016-04-02T02:45:27.128Z,0.94
2016-04-02T02:46:27.366Z,0.94
2016-04-02T02:47:27.119Z,0.91
2016-04-02T02:48:41.199Z,0.94
2016-04-02T02:49:27.139Z,0.96
2016-04-02T02:50:27.110Z,0.91
2016-04-02T02:51:27.160Z,0.91
2016-04-02T02:52:27.101Z,0.96
2016-04-02T02:53:27.493Z,0.96
2016-04-02T02:54:27.090Z,0.94
2016-04-02T02:55:27.312Z,0.96
2016-04-02T02:56:27.080Z,0.87
2016-04-02T02:57:27.083Z,0.96
2016-04-02T02:58:27.304Z,0.88
2016-04-02T02:59:41.166Z,0.86
2016-04-02T03:00:27.043Z,0.88
2016-04-02T03:01:27.265Z,0.83
2016-04-02T03:02:27.253Z,0.93
2016-04-02T03:03:41.130Z,0.87
2016-04-02T03:04:27.024Z,0.8
2016-04-02T03:05:27.057Z,0.78
2016-04-02T03:06:26.545Z,0.84
2016-04-02T03:07:27.017Z,0.78
2016-04-02T03:08:27.035Z,0.84
2016-04-02T03:10:41.306Z,0.87
2016-04-02T03:11:27.027Z,0.83
2016-04-02T03:12:26.514Z,0.79
2016-04-02T03:13:41.283Z,0.78
2016-04-02T03:14:27.253Z,0.8
2016-04-02T03:15:26.975Z,0.78
2016-04-02T03:16:26.977Z,0.8
2016-04-02T03:17:26.980Z,0.72
2016-04-02T03:18:26.967Z,0.78
2016-04-02T03:19:27.142Z,0.78
2016-04-02T03:20:41.036Z,0.75
2016-04-02T03:21:26.944Z,0.78
2016-04-02T03:22:26.947Z,0.78
2016-04-02T03:23:26.934Z,0.83
2016-04-02T03:24:26.905Z,0.79
2016-04-02T03:25:27.143Z,0.86
2016-04-02T03:26:27.113Z,0.86
2016-04-02T03:27:26.913Z,0.87
2016-04-02T03:28:26.916Z,0.9
2016-04-02T03:29:26.935Z,0.93
2016-04-02T03:30:26.907Z,0.96
2016-04-02T03:31:26.909Z,0.96
2016-04-02T03:32:26.880Z,0.91
2016-04-02T03:33:26.882Z,0.96
2016-04-02T03:34:26.885Z,0.94
2016-04-02T03:35:26.576Z,0.94
2016-04-02T03:36:26.876Z,0.94
2016-04-02T03:37:27.081Z,0.98
2016-04-02T03:38:26.881Z,0.91
2016-04-02T03:39:40.945Z,0.97
2016-04-02T03:40:27.089Z,1.08
2016-04-02T03:41:26.873Z,0.96
2016-04-02T03:42:26.829Z,1.09
2016-04-02T03:43:27.020Z,0.94
2016-04-02T03:44:26.834Z,0.97
2016-04-02T03:45:27.040Z,0.98
2016-04-02T03:46:26.825Z,1.05
2016-04-02T03:47:27.045Z,1.06
2016-04-02T03:48:27.017Z,1.09
2016-04-02T03:49:27.035Z,1.09
2016-04-02T03:50:27.007Z,1.09
2016-04-02T03:51:26.774Z,1.05
2016-04-02T03:52:26.293Z,0.94
2016-04-02T03:53:26.827Z,1.04
2016-04-02T03:54:26.782Z,1.05
2016-04-02T03:55:27.004Z,1.09
2016-04-02T03:56:26.757Z,1.02
2016-04-02T03:57:26.744Z,1.12
2016-04-02T03:58:26.747Z,1.12
2016-04-02T03:59:26.937Z,1.02
2016-04-02T04:00:26.580Z,1.09
2016-04-02T04:01:26.723Z,1.04
2016-04-02T04:02:26.726Z,1.05
2016-04-02T04:03:26.729Z,1.08
2016-04-02T04:04:26.716Z,1.06
2016-04-02T04:05:26.719Z,1.09
2016-04-02T04:06:26.707Z,1.05
2016-04-02T04:07:26.756Z,1.08
2016-04-02T04:08:26.712Z,1
2016-04-02T04:09:26.699Z,1.11
2016-04-02T04:10:40.764Z,1.02
2016-04-02T04:11:26.704Z,1.12
2016-04-02T04:12:27.284Z,1.11
2016-04-02T04:13:26.865Z,1.08
2016-04-02T04:14:26.650Z,1.05
2016-04-02T04:15:26.886Z,1.15
2016-04-02T04:16:26.639Z,1.14
2016-04-02T04:18:26.628Z,1.11
2016-04-02T04:19:26.694Z,1.2
2016-04-02T04:20:26.619Z,1.09
2016-04-02T04:21:26.669Z,1.15
2016-04-02T04:22:26.639Z,1.12
2016-04-02T04:23:26.830Z,1.18
2016-04-02T04:24:26.599Z,1.11
2016-04-02T04:25:26.819Z,1.09
2016-04-02T04:26:26.604Z,1.09
2016-04-02T04:27:26.824Z,1.2
2016-04-02T04:28:26.796Z,1.15
2016-04-02T04:29:26.579Z,1.15
2016-04-02T04:30:26.770Z,1.2
2016-04-02T04:31:26.788Z,1.16
2016-04-02T04:32:26.760Z,1.23
2016-04-02T04:33:26.590Z,1.18
2016-04-02T04:34:26.563Z,1.22
2016-04-02T04:35:26.815Z,1.23
2016-04-02T04:36:26.052Z,1.23
2016-04-02T04:37:26.993Z,1.15
2016-04-02T04:38:26.526Z,1.14
2016-04-02T04:39:26.732Z,1.22
2016-04-02T04:40:26.531Z,1.22
2016-04-02T04:42:26.740Z,1.2
2016-04-02T04:43:26.556Z,1.3
2016-04-02T04:44:26.543Z,1.27
2016-04-02T04:45:26.530Z,1.3
2016-04-02T04:46:26.517Z,1.29
2016-04-02T04:48:26.475Z,1.3
2016-04-02T04:49:26.525Z,1.36
2016-04-02T04:50:26.511Z,1.36
2016-04-02T04:51:40.561Z,1.33
2016-04-02T04:52:26.674Z,1.33
2016-04-02T04:53:26.457Z,1.34
2016-04-02T04:54:26.897Z,1.42
2016-04-02T04:55:26.463Z,1.42
2016-04-02T04:56:26.449Z,1.42
2016-04-02T04:57:25.969Z,1.48
2016-04-02T04:58:26.455Z,1.48
2016-04-02T04:59:26.443Z,1.48
2016-04-02T05:00:26.805Z,1.48
2016-04-02T05:01:26.682Z,1.48
2016-04-02T05:02:26.419Z,1.55
2016-04-02T05:03:26.843Z,1.54
2016-04-02T05:04:26.409Z,1.55
2016-04-02T05:05:26.427Z,1.6
2016-04-02T05:06:26.632Z,1.59
2016-04-02T05:07:26.401Z,1.55
2016-04-02T05:08:26.591Z,1.62
2016-04-02T05:09:26.390Z,1.62
2016-04-02T05:10:26.815Z,1.65
2016-04-02T05:11:26.770Z,1.66
2016-04-02T05:12:26.681Z,1.72
2016-04-02T05:13:26.698Z,1.77
2016-04-02T05:14:27.045Z,1.73
2016-04-02T05:15:26.907Z,1.81
2016-04-02T05:16:26.675Z,1.73
2016-04-02T05:17:26.709Z,1.77
2016-04-02T05:18:26.727Z,1.8
2016-04-02T05:19:26.527Z,1.87
2016-04-02T05:20:26.545Z,1.87
2016-04-02T05:21:26.783Z,1.91
2016-04-02T05:22:26.489Z,1.9
2016-04-02T05:23:26.554Z,1.95
2016-04-02T05:24:26.510Z,1.93
2016-04-02T05:25:26.528Z,1.93
2016-04-02T05:26:26.765Z,2.02
2016-04-02T05:27:26.799Z,2.02
2016-04-02T05:28:26.646Z,1.95
2016-04-02T05:29:26.616Z,2.06
2016-04-02T05:30:26.572Z,2.1
2016-04-02T05:31:26.621Z,2.1
2016-04-02T05:32:26.546Z,2.16
2016-04-02T05:33:26.502Z,2.07
2016-04-02T05:34:26.473Z,2.12
2016-04-02T05:35:26.429Z,2.16
2016-04-02T05:36:26.557Z,2.16
2016-04-02T05:37:26.607Z,2.24
2016-04-02T05:38:26.579Z,2.18
2016-04-02T05:39:27.050Z,2.18
2016-04-02T05:40:26.615Z,2.3
2016-04-02T05:41:26.383Z,2.28
2016-04-02T05:42:26.526Z,2.31
2016-04-02T05:43:26.561Z,2.42
2016-04-02T05:44:26.563Z,2.36
2016-04-02T05:45:26.644Z,2.45
2016-04-02T05:46:26.708Z,2.42
2016-04-02T05:49:26.545Z,2.42
2016-04-02T05:50:26.205Z,2.45
2016-04-02T05:51:26.536Z,2.53
2016-04-02T05:52:26.319Z,2.53
2016-04-02T05:53:26.494Z,2.48
2016-04-02T05:54:26.606Z,2.46
2016-04-02T05:55:26.530Z,2.56
2016-04-02T05:56:26.439Z,2.54
2016-04-02T05:57:26.269Z,2.56
2016-04-02T05:58:26.413Z,2.6
2016-04-02T05:59:26.244Z,2.56
2016-04-02T06:00:26.482Z,2.61
2016-04-02T06:01:26.610Z,2.64
2016-04-02T06:03:26.255Z,2.61
2016-04-02T06:04:26.414Z,2.67
2016-04-02T06:05:26.198Z,2.63
2016-04-02T06:06:25.716Z,2.78
2016-04-02T06:07:26.250Z,2.77
2016-04-02T06:08:26.628Z,2.79
2016-04-02T06:09:26.162Z,2.77
2016-04-02T06:10:26.211Z,2.77
2016-04-02T06:11:26.636Z,2.84
2016-04-02T06:12:26.356Z,2.92
2016-04-02T06:13:26.531Z,2.95
2016-04-02T06:14:26.222Z,3.05
2016-04-02T06:15:26.397Z,2.99
2016-04-02T06:16:26.212Z,3.08
2016-04-02T06:17:26.778Z,3.14
2016-04-02T06:19:26.329Z,3.13
2016-04-02T06:20:26.269Z,3.29
2016-04-02T06:21:26.241Z,3.29
2016-04-02T06:22:26.525Z,3.39
2016-04-02T06:23:26.511Z,3.45
2016-04-02T06:24:26.749Z,3.5
2016-04-02T06:25:26.344Z,3.5
2016-04-02T06:26:26.410Z,3.6
2016-04-02T06:27:26.179Z,3.58
2016-04-02T06:28:26.259Z,3.7
2016-04-02T06:29:26.105Z,3.69
2016-04-02T06:30:26.062Z,3.68
2016-04-02T06:31:26.126Z,3.76
2016-04-02T06:32:26.333Z,3.78
2016-04-02T06:33:26.288Z,3.86
2016-04-02T06:34:26.260Z,3.96
2016-04-02T06:35:26.059Z,3.88
2016-04-02T06:36:26.046Z,3.91
2016-04-02T06:37:26.081Z,3.9
2016-04-02T06:38:40.349Z,3.96
2016-04-02T06:39:26.102Z,4.02
2016-04-02T06:40:26.058Z,4.05
2016-04-02T06:41:26.045Z,4.09
2016-04-02T06:42:25.766Z,4.18
2016-04-02T06:43:26.051Z,4.3
2016-04-02T06:44:26.021Z,4.32
2016-04-02T06:45:40.321Z,4.32
2016-04-02T06:46:26.245Z,4.37
2016-04-02T06:48:26.189Z,4.48
2016-04-02T06:49:40.534Z,4.63
2016-04-02T06:50:26.303Z,4.52
2016-04-02T06:51:26.321Z,4.63
2016-04-02T06:52:26.230Z,4.75
2016-04-02T06:53:26.452Z,4.78
2016-04-02T06:54:26.392Z,4.78
2016-04-02T06:55:26.239Z,4.85
2016-04-02T06:56:26.616Z,5
2016-04-02T06:57:26.072Z,5.06
2016-04-02T06:58:40.199Z,5.02
2016-04-02T06:59:26.030Z,5.04
2016-04-02T07:00:26.221Z,5.18
2016-04-02T07:01:26.145Z,5.17
2016-04-02T07:02:26.179Z,5.18
2016-04-02T07:03:26.478Z,5.25
2016-04-02T07:04:25.778Z,5.28
2016-04-02T07:05:26.202Z,5.39
2016-04-02T07:06:26.049Z,5.33
2016-04-02T07:07:26.504Z,5.49
2016-04-02T07:08:25.571Z,5.48
2016-04-02T07:09:26.135Z,5.56
2016-04-02T07:10:26.138Z,5.63
2016-04-02T07:11:26.329Z,5.74
2016-04-02T07:12:26.096Z,5.85
2016-04-02T07:13:26.021Z,5.99
2016-04-02T07:14:26.493Z,6.03
2016-04-02T07:15:26.558Z,6.06
2016-04-02T07:16:40.123Z,6.11
2016-04-02T07:17:40.110Z,6.21
2016-04-02T07:18:26.112Z,6.27
2016-04-02T07:19:26.240Z,6.25
2016-04-02T07:20:26.103Z,6.28
2016-04-02T07:21:26.105Z,6.31
2016-04-02T07:22:26.123Z,6.46
2016-04-02T07:23:28.392Z,6.49
2016-04-02T07:24:26.535Z,6.4
2016-04-02T07:25:26.585Z,6.41
2016-04-02T07:26:26.165Z,6.54
2016-04-02T07:27:26.121Z,6.52
2016-04-02T07:28:26.436Z,6.52
2016-04-02T07:29:26.033Z,6.61
2016-04-02T07:30:26.052Z,6.64
2016-04-02T07:31:26.022Z,6.61
2016-04-02T07:32:26.260Z,6.71
2016-04-02T07:33:26.059Z,6.69
2016-04-02T07:34:26.202Z,6.79
2016-04-02T07:35:26.065Z,6.81
2016-04-02T07:36:25.536Z,6.84
2016-04-02T07:37:26.023Z,6.73
2016-04-02T07:38:40.120Z,6.81
2016-04-02T07:39:26.028Z,6.87
2016-04-02T07:40:26.218Z,6.84
2016-04-02T07:41:26.049Z,6.98
2016-04-02T07:42:26.240Z,7.03
2016-04-02T07:43:26.227Z,7.03
2016-04-02T07:44:26.229Z,7.06
2016-04-02T07:45:26.248Z,7.1
2016-04-02T07:46:40.328Z,7.16
2016-04-02T07:47:29.269Z,7.12
2016-04-02T07:48:26.381Z,7.23
2016-04-02T07:49:26.039Z,7.23
2016-04-02T07:50:40.153Z,7.25
2016-04-02T07:51:26.092Z,7.23
2016-04-02T07:52:26.283Z,7.23
2016-04-02T07:53:26.051Z,7.31
2016-04-02T07:54:26.038Z,7.35
2016-04-02T07:55:26.291Z,7.35
2016-04-02T07:56:26.043Z,7.46
2016-04-02T07:57:26.046Z,7.45
2016-04-02T07:58:26.063Z,7.48
2016-04-02T07:59:26.066Z,7.53
2016-04-02T08:00:26.272Z,7.57
2016-04-02T08:01:26.072Z,7.58
2016-04-02T08:02:26.060Z,7.53
2016-04-02T08:03:40.344Z,7.55
2016-04-02T08:04:26.049Z,7.53
2016-04-02T08:05:26.099Z,7.57
2016-04-02T08:06:40.163Z,7.61
2016-04-02T08:07:26.088Z,7.68
2016-04-02T08:09:26.093Z,7.72
2016-04-02T08:10:26.268Z,7.74
2016-04-02T08:11:26.051Z,7.75
2016-04-02T08:12:26.086Z,7.71
2016-04-02T08:13:26.464Z,7.75
2016-04-02T08:14:26.482Z,7.83
2016-04-02T08:15:26.095Z,7.9
2016-04-02T08:16:26.268Z,7.85
2016-04-02T08:17:26.287Z,7.82
2016-04-02T08:19:26.073Z,7.83
2016-04-02T08:20:26.076Z,7.86
2016-04-02T08:21:26.282Z,7.86
2016-04-02T08:22:26.082Z,7.92
2016-04-02T08:23:26.116Z,7.97
2016-04-02T08:24:26.103Z,8.01
2016-04-02T08:25:40.199Z,8
2016-04-02T08:26:26.092Z,8.07
2016-04-02T08:28:26.097Z,7.98
2016-04-02T08:29:26.085Z,8.01
2016-04-02T08:30:26.103Z,8.04
2016-04-02T08:31:26.106Z,8.07
2016-04-02T08:32:26.093Z,7.98
2016-04-02T08:33:26.096Z,7.98
2016-04-02T08:34:26.301Z,8.02
2016-04-02T08:35:26.116Z,8.15
2016-04-02T08:37:26.090Z,8.02
2016-04-02T08:38:26.109Z,8.02
2016-04-02T08:39:26.112Z,8.07
2016-04-02T08:40:26.114Z,8.07
2016-04-02T08:41:26.133Z,8.05
2016-04-02T08:42:26.120Z,8.1
2016-04-02T08:43:26.107Z,8.1
2016-04-02T08:45:40.612Z,8.16
2016-04-02T08:46:26.131Z,8.15
2016-04-02T08:47:26.321Z,8.12
2016-04-02T08:48:26.229Z,8.18
2016-04-02T08:49:26.201Z,8.15
2016-04-02T08:50:26.125Z,8.18
2016-04-02T08:51:26.128Z,8.16
2016-04-02T08:52:26.131Z,8.19
2016-04-02T08:53:26.133Z,8.23
2016-04-02T08:54:26.152Z,8.23
2016-04-02T08:55:26.139Z,8.18
2016-04-02T08:56:26.142Z,8.23
2016-04-02T08:57:26.348Z,8.26
2016-04-02T08:58:26.147Z,8.23
2016-04-02T08:59:26.150Z,8.26
2016-04-02T09:00:26.386Z,8.26
2016-04-02T09:01:26.186Z,8.29
2016-04-02T09:02:26.360Z,8.26
2016-04-02T09:03:26.177Z,8.36
2016-04-02T09:04:26.382Z,8.29
2016-04-02T09:05:26.182Z,8.36
2016-04-02T09:06:26.215Z,8.25
2016-04-02T09:07:40.265Z,8.34
2016-04-02T09:08:40.267Z,8.37
2016-04-02T09:09:26.660Z,8.37
2016-04-02T09:10:26.163Z,8.36
2016-04-02T09:11:25.682Z,8.37
2016-04-02T09:12:26.185Z,8.4
2016-04-02T09:13:26.187Z,8.4
2016-04-02T09:14:26.206Z,8.47
2016-04-02T09:15:26.396Z,8.44
2016-04-02T09:16:26.180Z,8.4
2016-04-02T09:17:26.387Z,8.48
2016-04-02T09:18:26.217Z,8.55
2016-04-02T09:19:26.220Z,8.52
2016-04-02T09:20:26.206Z,8.56
2016-04-02T09:21:26.225Z,8.61
2016-04-02T09:22:26.399Z,8.59
2016-04-02T09:23:26.198Z,8.66
2016-04-02T09:24:26.201Z,8.74
2016-04-02T09:25:26.408Z,8.84
2016-04-02T09:26:26.207Z,8.92
2016-04-02T09:27:26.225Z,9.04
2016-04-02T09:28:26.212Z,8.99
2016-04-02T09:29:26.199Z,9.13
2016-04-02T09:30:26.483Z,9.11
2016-04-02T09:31:26.266Z,9.15
2016-04-02T09:32:26.410Z,9.11
2016-04-02T09:33:26.444Z,9.15
2016-04-02T09:34:26.213Z,9.23
2016-04-02T09:35:26.231Z,9.2
2016-04-02T09:36:26.233Z,9.24
2016-04-02T09:37:26.236Z,9.28
2016-04-02T09:38:26.238Z,9.31
2016-04-02T09:39:26.242Z,9.29
2016-04-02T09:40:26.463Z,9.29
2016-04-02T09:41:26.232Z,9.33
2016-04-02T09:42:26.234Z,9.42
2016-04-02T09:43:26.268Z,9.4
2016-04-02T09:44:26.287Z,9.38
2016-04-02T09:45:26.257Z,9.39
2016-04-02T09:46:26.260Z,9.47
2016-04-02T09:47:26.262Z,9.5
2016-04-02T09:48:26.485Z,9.6
2016-04-02T09:49:26.550Z,9.66
2016-04-02T09:50:26.506Z,9.72
2016-04-02T09:51:26.289Z,9.79
2016-04-02T09:52:26.276Z,9.86
2016-04-02T09:53:40.795Z,9.96
2016-04-02T09:54:26.297Z,10.02
2016-04-02T09:55:26.331Z,9.96
2016-04-02T09:56:26.287Z,10.04
2016-04-02T09:57:26.306Z,9.97
2016-04-02T09:58:26.293Z,10.08
2016-04-02T09:59:26.342Z,10.14
2016-04-02T10:00:26.314Z,10.12
2016-04-02T10:01:26.316Z,10.14
2016-04-02T10:02:26.710Z,10.17
2016-04-02T10:03:26.572Z,10.25
2016-04-02T10:04:26.934Z,10.17
2016-04-02T10:05:26.344Z,10.23
2016-04-02T10:06:26.314Z,10.25
2016-04-02T10:07:26.349Z,10.23
2016-04-02T10:08:26.335Z,10.26
2016-04-02T10:09:40.447Z,10.22
2016-04-02T10:10:26.356Z,10.4
2016-04-02T10:11:26.374Z,10.27
2016-04-02T10:12:26.393Z,10.32
2016-04-02T10:13:26.380Z,10.27
2016-04-02T10:14:26.368Z,10.25
2016-04-02T10:15:26.495Z,10.41
2016-04-02T10:16:26.388Z,10.38
2016-04-02T10:17:26.797Z,10.41
2016-04-02T10:18:26.612Z,10.41
2016-04-02T10:19:26.630Z,10.45
2016-04-02T10:20:26.383Z,10.45
2016-04-02T10:21:26.401Z,10.55
2016-04-02T10:22:40.498Z,10.53
2016-04-02T10:23:25.907Z,10.7
2016-04-02T10:24:26.441Z,10.66
2016-04-02T10:25:26.444Z,10.66
2016-04-02T10:26:26.414Z,10.78
2016-04-02T10:27:26.449Z,10.82
2016-04-02T10:28:26.436Z,10.86
2016-04-02T10:29:26.439Z,10.81
2016-04-02T10:30:26.442Z,10.85
2016-04-02T10:31:26.663Z,10.91
2016-04-02T10:32:40.744Z,10.92
2016-04-02T10:33:26.793Z,11
2016-04-02T10:34:26.452Z,11.03
2016-04-02T10:35:26.470Z,10.92
2016-04-02T10:36:26.473Z,11.1
2016-04-02T10:37:26.757Z,11
2016-04-02T10:38:26.572Z,11
2016-04-02T10:39:26.482Z,11.04
2016-04-02T10:41:26.487Z,11.17
2016-04-02T10:42:26.693Z,11.17
2016-04-02T10:43:26.507Z,11.25
2016-04-02T10:44:26.526Z,11.29
2016-04-02T10:45:26.512Z,11.37
2016-04-02T10:46:26.703Z,11.29
2016-04-02T10:47:26.549Z,11.42
2016-04-02T10:48:26.537Z,11.51
2016-04-02T10:49:26.540Z,11.47
2016-04-02T10:50:26.573Z,11.4
2016-04-02T10:51:26.560Z,11.39
2016-04-02T10:52:26.766Z,11.51
2016-04-02T10:53:26.754Z,11.64
2016-04-02T10:54:26.553Z,11.57
2016-04-02T10:55:26.587Z,11.62
2016-04-02T10:56:26.559Z,11.64
2016-04-02T10:58:26.595Z,11.64
2016-04-02T10:59:27.175Z,11.67
2016-04-02T11:00:26.819Z,11.65
2016-04-02T11:01:26.821Z,11.72
2016-04-02T11:02:26.626Z,11.69
2016-04-02T11:03:27.195Z,11.82
2016-04-02T11:04:26.781Z,11.78
2016-04-02T11:05:26.789Z,11.78
2016-04-02T11:06:26.983Z,11.88
2016-04-02T11:07:26.793Z,11.9
2016-04-02T11:08:26.589Z,11.95
2016-04-02T11:09:40.853Z,11.91
2016-04-02T11:10:26.601Z,11.99
2016-04-02T11:11:26.631Z,11.91
2016-04-02T11:12:26.601Z,11.95
2016-04-02T11:13:26.993Z,12.05
2016-04-02T11:14:27.025Z,11.98
2016-04-02T11:15:26.900Z,11.96
2016-04-02T11:16:26.588Z,11.94
2016-04-02T11:17:26.605Z,11.95
2016-04-02T11:18:26.592Z,11.96
2016-04-02T11:19:26.611Z,11.99
2016-04-02T11:20:26.675Z,11.99
2016-04-02T11:21:26.693Z,12.05
2016-04-02T11:22:26.820Z,12.05
2016-04-02T11:23:26.682Z,11.99
2016-04-02T11:24:26.623Z,12.09
2016-04-02T11:25:26.876Z,12.16
2016-04-02T11:26:26.676Z,12.09
2016-04-02T11:27:26.678Z,12.17
2016-04-02T11:28:26.650Z,12.17
2016-04-02T11:29:26.214Z,12.2
2016-04-02T11:30:26.686Z,12.2
2016-04-02T11:31:26.673Z,12.32
2016-04-02T11:32:26.675Z,12.31
2016-04-02T11:33:26.725Z,12.32
2016-04-02T11:34:26.697Z,12.27
2016-04-02T11:35:26.700Z,12.29
2016-04-02T11:36:26.703Z,12.34
2016-04-02T11:37:26.720Z,12.32
2016-04-02T11:38:27.052Z,12.37
2016-04-02T11:39:26.725Z,12.37
2016-04-02T11:40:26.760Z,12.41
2016-04-02T11:41:26.871Z,12.49
2016-04-02T11:42:27.155Z,12.42
2016-04-02T11:43:26.768Z,12.49
2016-04-02T11:44:26.770Z,12.52
2016-04-02T11:45:26.742Z,12.52
2016-04-02T11:46:26.776Z,12.52
2016-04-02T11:47:26.997Z,12.56
2016-04-02T11:48:26.796Z,12.5
2016-04-02T11:49:27.065Z,12.62
2016-04-02T11:50:26.787Z,12.62
2016-04-02T11:51:26.805Z,12.68
2016-04-02T11:52:26.808Z,12.7
2016-04-02T11:53:27.045Z,12.7
2016-04-02T11:54:26.829Z,12.82
2016-04-02T11:55:26.878Z,12.86
2016-04-02T11:56:26.365Z,12.86
2016-04-02T11:57:41.151Z,12.95
2016-04-02T11:58:41.358Z,13.01
2016-04-02T11:59:27.092Z,13.03
2016-04-02T12:00:26.875Z,13.15
2016-04-02T12:01:41.178Z,13.32
2016-04-02T12:02:27.147Z,13.32
2016-04-02T12:03:26.884Z,13.36
2016-04-02T12:04:27.292Z,13.44
2016-04-02T12:05:41.220Z,13.48
2016-04-02T12:06:26.923Z,13.45
2016-04-02T12:07:26.754Z,13.6
2016-04-02T12:08:27.178Z,13.55
2016-04-02T12:09:26.930Z,13.7
2016-04-02T12:10:26.965Z,13.84
2016-04-02T12:11:26.952Z,13.87
2016-04-02T12:12:26.955Z,13.88
2016-04-02T12:13:26.942Z,14.04
2016-04-02T12:14:26.976Z,14
2016-04-02T12:15:26.994Z,13.99
2016-04-02T12:16:26.982Z,14.07
2016-04-02T12:17:27.015Z,14.2
2016-04-02T12:18:26.988Z,14.22
2016-04-02T12:19:27.037Z,14.33
2016-04-02T12:20:27.008Z,14.37
2016-04-02T12:21:27.010Z,14.51
2016-04-02T12:22:27.029Z,14.52
2016-04-02T12:23:27.048Z,14.58
2016-04-02T12:24:27.065Z,14.62
2016-04-02T12:25:26.568Z,14.72
2016-04-02T12:26:27.070Z,14.68
2016-04-02T12:27:27.074Z,14.83
2016-04-02T12:28:27.311Z,14.81
2016-04-02T12:29:27.095Z,14.99
2016-04-02T12:30:26.629Z,14.99
2016-04-02T12:31:27.115Z,15.13
2016-04-02T12:32:27.118Z,15.19
2016-04-02T12:33:27.120Z,15.21
2016-04-02T12:34:27.342Z,15.31
2016-04-02T12:35:27.157Z,15.28
2016-04-02T12:36:27.191Z,15.31
2016-04-02T12:37:27.163Z,15.31
2016-04-02T12:38:27.181Z,15.44
2016-04-02T12:39:27.200Z,15.51
2016-04-02T12:40:27.186Z,15.5
2016-04-02T12:41:27.221Z,15.51
2016-04-02T12:42:27.223Z,15.57
2016-04-02T12:43:27.242Z,15.6
2016-04-02T12:44:27.244Z,15.56
2016-04-02T12:45:27.247Z,15.68
2016-04-02T12:46:27.266Z,15.71
2016-04-02T12:47:27.252Z,15.78
2016-04-02T12:48:27.286Z,15.89
2016-04-02T12:49:27.289Z,15.9
2016-04-02T12:50:27.291Z,15.89
2016-04-02T12:51:27.310Z,15.84
2016-04-02T12:52:27.312Z,15.93
2016-04-02T12:53:27.347Z,16.01
2016-04-02T12:54:27.349Z,15.96
2016-04-02T12:55:27.571Z,16.02
2016-04-02T12:56:27.355Z,16.04
2016-04-02T12:57:27.373Z,16.05
2016-04-02T12:58:27.595Z,16.04
2016-04-02T12:59:27.378Z,16.01
2016-04-02T13:00:27.412Z,16.05
2016-04-02T13:01:27.430Z,16.14
2016-04-02T13:02:27.417Z,16.11
2016-04-02T13:03:27.451Z,16.24
2016-04-02T13:04:27.642Z,16.31
2016-04-02T13:05:27.457Z,16.12
2016-04-02T13:06:27.475Z,16.24
2016-04-02T13:07:27.478Z,16.25
2016-04-02T13:08:27.511Z,16.25
2016-04-02T13:09:27.483Z,16.27
2016-04-02T13:10:27.517Z,16.39
2016-04-02T13:11:27.755Z,16.31
2016-04-02T13:12:27.539Z,16.34
2016-04-02T13:13:27.541Z,16.35
2016-04-02T13:14:27.544Z,16.45
2016-04-02T13:15:27.577Z,16.42
2016-04-02T13:16:27.580Z,16.39
2016-04-02T13:17:27.598Z,16.48
2016-04-02T13:18:27.585Z,16.49
2016-04-02T13:19:27.651Z,16.49
2016-04-02T13:20:27.779Z,16.5
2016-04-02T13:21:27.704Z,16.49
2016-04-02T13:22:27.659Z,16.56
2016-04-02T13:23:27.693Z,16.52
2016-04-02T13:24:27.898Z,16.46
2016-04-02T13:25:27.682Z,16.6
2016-04-02T13:26:27.747Z,16.64
2016-04-02T13:27:27.703Z,16.53
2016-04-02T13:28:27.722Z,16.56
2016-04-02T13:29:27.756Z,16.53
2016-04-02T13:30:28.149Z,16.52
2016-04-02T13:31:27.293Z,16.68
2016-04-02T13:32:27.764Z,16.63
2016-04-02T13:33:27.798Z,16.66
2016-04-02T13:34:27.831Z,16.6
2016-04-02T13:35:28.131Z,16.64
2016-04-02T13:36:27.931Z,16.63